Time;durP1;ratioP1;P1;durP2;ratioP2;P2;SDS_P1;SDS_P2;PMS_P1;PMS_P2;Temp;Humidity;BMP_temperature;BMP_pressure;BME280_temperature;BME280_humidity;BME280_pressure;Samples;Min_cycle;Max_cycle;Signal;HPM_P1;HPM_P2
2022/11/19 00:01:21;;;;;;;1.40;1.30;;;;;;;11.41;100.00;63174.53;5005254;28;20235;-77
2022/11/19 00:03:48;;;;;;;1.23;1.23;;;;;;;11.36;100.00;63169.88;4990661;28;20222;-77
2022/11/19 00:06:18;;;;;;;2.15;0.82;;;;;;;11.41;100.00;63172.00;5004791;28;20258;-76
2022/11/19 00:08:45;;;;;;;2.70;0.93;;;;;;;11.40;100.00;63168.94;5007573;28;20210;-78
2022/11/19 00:12:53;;;;;;;0.50;0.50;;;;;;;11.39;100.00;63170.44;5007802;28;20258;-77
2022/11/19 00:14:02;;;;;;;1.88;0.63;;;;;;;11.35;100.00;63163.25;5007228;28;20230;-76
2022/11/19 00:16:28;;;;;;;0.50;0.50;;;;;;;11.29;100.00;63159.56;4998727;28;20231;-75
2022/11/19 00:18:55;;;;;;;0.40;0.40;;;;;;;11.27;100.00;63158.00;5002139;28;20210;-75
2022/11/19 00:21:22;;;;;;;1.58;0.70;;;;;;;11.23;100.00;63153.38;5006880;28;20245;-76
2022/11/19 00:23:53;;;;;;;0.43;0.43;;;;;;;11.23;100.00;63156.41;5002198;28;20196;-77
2022/11/19 00:26:23;;;;;;;0.40;0.40;;;;;;;11.13;100.00;63145.56;4997301;28;20227;-75
2022/11/19 00:28:50;;;;;;;1.17;0.30;;;;;;;11.06;100.00;63135.75;5007661;28;20199;-75
2022/11/19 00:31:17;;;;;;;0.28;0.28;;;;;;;11.02;100.00;63134.16;5006504;28;20539;-75
2022/11/19 00:33:45;;;;;;;0.85;0.50;;;;;;;10.96;100.00;63130.50;4998522;28;20210;-75
2022/11/19 00:36:14;;;;;;;0.40;0.40;;;;;;;10.94;100.00;63123.84;4998343;28;20227;-76
2022/11/19 00:38:41;;;;;;;0.43;0.43;;;;;;;11.00;100.00;63134.63;4990988;28;20250;-75
2022/11/19 00:41:08;;;;;;;0.30;0.30;;;;;;;10.95;100.00;63129.97;4986791;28;20240;-73
2022/11/19 00:43:48;;;;;;;0.28;0.28;;;;;;;10.91;100.00;63125.31;4994534;28;20200;-74
2022/11/19 00:46:16;;;;;;;0.43;0.43;;;;;;;10.89;100.00;63118.66;5001732;28;20223;-73
2022/11/19 00:48:43;;;;;;;0.40;0.40;;;;;;;10.78;100.00;63106.75;5005059;28;20207;-72
2022/11/19 00:51:11;;;;;;;0.47;0.47;;;;;;;10.84;100.00;63116.03;5005250;28;20262;-74
2022/11/19 00:53:38;;;;;;;1.70;0.40;;;;;;;10.81;100.00;63114.97;4996056;28;20572;-73
2022/11/19 00:56:07;;;;;;;0.82;0.70;;;;;;;10.81;100.00;63105.28;5005466;28;20220;-73
2022/11/19 00:58:36;;;;;;;0.43;0.43;;;;;;;10.80;100.00;63103.75;5006156;28;20546;-73
2022/11/19 01:01:03;;;;;;;0.52;0.52;;;;;;;10.74;100.00;63105.16;4999144;28;20591;-74
2022/11/19 01:03:30;;;;;;;0.40;0.40;;;;;;;10.57;100.00;63087.56;5003129;28;20203;-73
2022/11/19 01:05:57;;;;;;;0.30;0.30;;;;;;;10.52;100.00;63082.91;5004818;28;20266;-74
2022/11/19 01:08:24;;;;;;;2.10;0.43;;;;;;;10.38;100.00;63068.94;5005514;28;20448;-74
2022/11/19 01:10:51;;;;;;;0.22;0.22;;;;;;;10.21;100.00;63051.38;5002082;28;20496;-74
2022/11/19 01:16:08;;;;;;;0.77;0.70;;;;;;;9.93;100.00;63021.84;5004680;28;20230;-74
2022/11/19 01:18:35;;;;;;;1.63;0.50;;;;;;;10.03;100.00;63030.16;5003827;28;20504;-74
2022/11/19 01:21:03;;;;;;;0.60;0.60;;;;;;;10.03;100.00;63027.63;4999392;28;20231;-73
2022/11/19 01:23:30;;;;;;;0.52;0.52;;;;;;;10.01;100.00;63030.63;5004116;28;20218;-73
2022/11/19 01:25:56;;;;;;;0.40;0.40;;;;;;;9.99;100.00;63020.44;5005287;28;20266;-73
2022/11/19 01:28:24;;;;;;;0.63;0.63;;;;;;;10.06;100.00;63035.31;5003122;28;20199;-74
2022/11/19 01:30:50;;;;;;;0.65;0.65;;;;;;;10.03;100.00;63032.72;5006110;28;20227;-73
2022/11/19 01:33:21;;;;;;;0.57;0.57;;;;;;;10.04;100.00;63033.75;5003849;28;20504;-72
2022/11/19 01:35:55;;;;;;;0.70;0.70;;;;;;;10.05;100.00;63034.25;5004719;28;20219;-74
2022/11/19 01:38:21;;;;;;;0.70;0.70;;;;;;;10.04;100.00;63028.66;4995855;28;20199;-73
2022/11/19 01:40:48;;;;;;;1.88;1.00;;;;;;;9.99;100.00;63031.09;5004553;28;20219;-72
2022/11/19 01:43:15;;;;;;;3.05;0.90;;;;;;;9.99;100.00;63028.06;5004464;28;20227;-74
2022/11/19 01:45:47;;;;;;;0.73;0.73;;;;;;;9.93;100.00;63021.84;5002656;28;20290;-73
2022/11/19 01:48:19;;;;;;;1.10;1.10;;;;;;;9.95;100.00;63023.91;4997266;28;20268;-72
2022/11/19 01:50:51;;;;;;;1.15;1.15;;;;;;;9.92;100.00;63018.78;5004447;28;20282;-74
2022/11/19 01:53:21;;;;;;;0.85;0.85;;;;;;;9.94;100.00;63023.41;5004331;28;20199;-72
2022/11/19 01:55:48;;;;;;;1.10;1.10;;;;;;;9.87;100.00;63016.16;4995643;28;20472;-73
2022/11/19 01:58:20;;;;;;;1.00;1.00;;;;;;;9.81;100.00;63012.50;5003463;28;20254;-72
2022/11/19 02:00:47;;;;;;;1.08;1.08;;;;;;;9.78;100.00;63006.34;5003974;28;20230;-73
2022/11/19 02:03:17;;;;;;;0.93;0.93;;;;;;;9.80;100.00;63006.38;5006234;28;20409;-74
2022/11/19 02:05:46;;;;;;;3.70;1.77;;;;;;;9.82;100.00;63008.44;4994299;28;20446;-73
2022/11/19 02:08:37;;;;;;;2.28;2.08;;;;;;;9.79;100.00;63007.88;5004175;28;20199;-73
2022/11/19 02:11:18;;;;;;;2.50;1.48;;;;;;;9.82;100.00;63008.44;5005191;28;20405;-73
2022/11/19 02:13:51;;;;;;;1.60;1.50;;;;;;;9.80;100.00;63014.00;4995586;28;20364;-73
2022/11/19 02:16:27;;;;;;;2.60;1.45;;;;;;;9.86;100.00;63014.59;5002814;28;20227;-73
2022/11/19 02:19:01;;;;;;;1.10;1.10;;;;;;;9.82;100.00;63005.41;5003738;28;20197;-74
2022/11/19 02:21:34;;;;;;;2.65;2.33;;;;;;;9.75;100.00;62998.16;5006238;28;20278;-73
2022/11/19 02:24:32;;;;;;;2.17;1.70;;;;;;;9.90;100.00;63016.19;4999623;28;20246;-73
2022/11/19 02:27:49;;;;;;;2.92;1.63;;;;;;;10.13;100.00;63043.06;5003181;28;20218;-73
2022/11/19 02:30:19;;;;;;;2.90;2.03;;;;;;;10.19;100.00;63051.31;4987994;28;20224;-74
2022/11/19 02:33:02;;;;;;;3.58;2.40;;;;;;;10.25;100.00;63054.97;4994642;28;20378;-73
2022/11/19 02:35:46;;;;;;;1.70;1.60;;;;;;;10.13;100.00;63043.06;5003922;28;20242;-75
2022/11/19 02:38:22;;;;;;;1.50;1.40;;;;;;;10.01;100.00;63025.56;5004523;28;20246;-75
2022/11/19 02:40:56;;;;;;;1.98;1.48;;;;;;;9.91;100.00;63020.28;4995491;28;20384;-73
2022/11/19 02:43:32;;;;;;;4.90;1.63;;;;;;;9.80;100.00;63008.41;5004419;28;20204;-71
2022/11/19 02:46:05;;;;;;;1.40;1.30;;;;;;;9.81;100.00;63007.41;5007788;28;20225;-74
2022/11/19 02:48:37;;;;;;;1.40;1.35;;;;;;;9.81;100.00;63012.50;5003706;28;20209;-74
2022/11/19 02:51:05;;;;;;;1.17;1.17;;;;;;;9.68;100.00;62996.50;4994612;28;20226;-73
2022/11/19 02:53:33;;;;;;;1.00;1.00;;;;;;;9.74;100.00;63005.25;5003544;28;20199;-75
2022/11/19 02:56:12;;;;;;;0.80;0.80;;;;;;;9.80;100.00;63005.88;5002925;28;20290;-73
2022/11/19 03:04:30;;;;;;;1.10;1.10;;;;;;;9.66;100.00;62991.38;4997650;28;20206;-74
2022/11/19 03:07:00;;;;;;;1.02;1.02;;;;;;;9.73;100.00;62999.16;5008720;28;20535;-74
2022/11/19 03:09:28;;;;;;;2.05;1.92;;;;;;;9.69;100.00;62997.53;5005514;28;20203;-76
2022/11/19 03:12:04;;;;;;;2.05;1.80;;;;;;;9.68;100.00;62990.91;5007130;28;20266;-74
2022/11/19 03:17:31;;;;;;;1.60;1.50;;;;;;;9.62;100.00;62990.31;5005254;28;20246;-73
2022/11/19 03:20:04;;;;;;;1.58;1.48;;;;;;;9.62;100.00;62985.22;5009624;28;20226;-73
2022/11/19 03:22:36;;;;;;;1.45;1.42;;;;;;;9.52;100.00;62979.97;5005415;28;20414;-74
2022/11/19 03:25:09;;;;;;;3.72;1.70;;;;;;;9.48;100.00;62972.75;5008084;28;20258;-75
2022/11/19 03:27:40;;;;;;;2.75;1.65;;;;;;;9.42;100.00;62969.63;5004998;28;20240;-73
2022/11/19 03:30:09;;;;;;;3.67;1.67;;;;;;;9.47;100.00;62971.75;5006627;28;20227;-73
2022/11/19 03:32:43;;;;;;;1.60;1.60;;;;;;;9.47;100.00;62976.81;5007243;28;20373;-74
2022/11/19 03:35:15;;;;;;;1.52;1.38;;;;;;;9.48;100.00;62970.75;5004951;28;20227;-74
2022/11/19 03:37:43;;;;;;;1.42;1.42;;;;;;;9.41;100.00;62973.66;4992542;28;20207;-75
2022/11/19 03:40:12;;;;;;;1.65;1.55;;;;;;;9.32;100.00;62949.13;5007756;28;20242;-75
2022/11/19 03:42:41;;;;;;;1.80;1.70;;;;;;;9.31;100.00;62953.16;4988449;28;20231;-74
2022/11/19 03:45:13;;;;;;;1.55;1.50;;;;;;;9.33;100.00;62962.88;5001284;28;20266;-74
2022/11/19 03:47:44;;;;;;;2.25;1.58;;;;;;;9.24;100.00;62951.00;5006187;28;20271;-74
2022/11/19 03:50:18;;;;;;;2.10;1.98;;;;;;;9.26;100.00;62953.59;5007196;28;20258;-74
2022/11/19 03:52:45;;;;;;;2.00;1.90;;;;;;;9.23;100.00;62947.44;5006298;28;20195;-76
2022/11/19 03:55:13;;;;;;;2.03;1.92;;;;;;;9.26;100.00;62950.53;5006374;28;20450;-73
2022/11/19 03:57:40;;;;;;;2.50;2.30;;;;;;;9.30;100.00;62962.31;5001215;28;20196;-75
2022/11/19 04:00:08;;;;;;;2.95;2.25;;;;;;;9.30;100.00;62959.78;5000185;28;20223;-74
2022/11/19 04:02:35;;;;;;;2.63;2.42;;;;;;;9.25;100.00;62952.56;5001403;28;20231;-74
2022/11/19 04:05:03;;;;;;;2.90;2.03;;;;;;;9.17;100.00;62943.78;5005467;28;20199;-74
2022/11/19 04:07:30;;;;;;;2.35;2.10;;;;;;;9.22;100.00;62952.00;5006825;28;20200;-74
2022/11/19 04:09:57;;;;;;;2.40;2.30;;;;;;;9.26;100.00;62953.09;5008144;28;20238;-75
2022/11/19 04:12:25;;;;;;;3.15;2.85;;;;;;;9.29;100.00;62956.69;4997515;28;20434;-74
2022/11/19 04:14:52;;;;;;;2.50;2.30;;;;;;;9.29;100.00;62956.19;4997678;28;20198;-75
2022/11/19 04:17:20;;;;;;;2.90;2.70;;;;;;;9.30;100.00;62952.66;5007144;28;20218;-75
2022/11/19 04:19:47;;;;;;;3.33;2.10;;;;;;;9.22;100.00;62949.47;5006203;28;20247;-76
2022/11/19 04:22:15;;;;;;;2.08;1.95;;;;;;;9.14;100.00;62940.69;5004515;28;20566;-73
2022/11/19 04:24:42;;;;;;;2.17;2.08;;;;;;;9.18;100.00;62942.28;5006009;28;20474;-75
2022/11/19 04:27:09;;;;;;;2.50;2.30;;;;;;;9.16;100.00;62942.75;4999616;28;20243;-75
2022/11/19 04:29:35;;;;;;;2.40;2.30;;;;;;;9.22;100.00;62943.88;4996765;28;20250;-74
2022/11/19 04:32:02;;;;;;;3.17;2.95;;;;;;;9.19;100.00;62948.91;5004713;28;20445;-74
2022/11/19 04:34:29;;;;;;;3.10;2.50;;;;;;;9.10;100.00;62937.06;5006150;28;20203;-73
2022/11/19 04:36:56;;;;;;;2.83;2.65;;;;;;;9.15;100.00;62942.22;5005985;28;20242;-74
2022/11/19 04:39:24;;;;;;;6.00;2.53;;;;;;;9.16;100.00;62938.16;4991935;28;20206;-74
2022/11/19 04:41:51;;;;;;;2.65;2.40;;;;;;;9.19;100.00;62945.84;5005845;28;20235;-73
2022/11/19 04:44:18;;;;;;;3.10;2.80;;;;;;;9.21;100.00;62947.91;5006495;28;20246;-73
2022/11/19 04:46:44;;;;;;;2.13;2.03;;;;;;;9.25;100.00;62952.56;5004099;28;20223;-74
2022/11/19 04:49:11;;;;;;;2.83;2.63;;;;;;;9.27;100.00;62952.09;5005126;28;20204;-73
2022/11/19 04:51:38;;;;;;;2.20;1.98;;;;;;;9.24;100.00;62954.06;5004440;28;20598;-73
2022/11/19 04:54:07;;;;;;;2.38;2.28;;;;;;;9.25;100.00;62952.03;5004671;28;20240;-73
2022/11/19 04:56:35;;;;;;;2.92;2.30;;;;;;;9.32;100.00;62959.28;5002800;28;20247;-74
2022/11/19 04:59:03;;;;;;;2.90;2.58;;;;;;;9.37;100.00;62958.88;5005277;28;20200;-75
2022/11/19 05:01:30;;;;;;;2.88;2.67;;;;;;;9.37;100.00;62963.94;5003150;28;20230;-77
2022/11/19 05:03:57;;;;;;;3.53;3.03;;;;;;;9.39;100.00;62966.00;5005129;28;20195;-74
2022/11/19 05:06:24;;;;;;;5.65;2.15;;;;;;;9.30;100.00;62955.19;5003490;28;20441;-73
2022/11/19 05:08:51;;;;;;;2.00;1.90;;;;;;;9.27;100.00;62954.09;5003437;28;20204;-74
2022/11/19 05:11:18;;;;;;;2.13;1.92;;;;;;;9.28;100.00;62958.19;5005041;28;20585;-74
2022/11/19 05:13:46;;;;;;;2.88;1.90;;;;;;;9.24;100.00;62951.53;5003409;28;20366;-74
2022/11/19 05:16:13;;;;;;;3.65;2.17;;;;;;;9.28;100.00;62955.16;5005201;28;20260;-73
2022/11/19 05:18:39;;;;;;;2.45;2.25;;;;;;;9.26;100.00;62953.59;5003919;28;20233;-73
2022/11/19 05:21:07;;;;;;;2.00;1.90;;;;;;;9.28;100.00;62955.66;5004839;28;20387;-77
2022/11/19 05:23:34;;;;;;;2.55;2.35;;;;;;;9.27;100.00;62951.56;4998129;28;20251;-73
2022/11/19 05:26:00;;;;;;;2.78;2.53;;;;;;;9.23;100.00;62947.44;5003783;28;20286;-75
2022/11/19 05:28:27;;;;;;;3.25;2.40;;;;;;;9.27;100.00;62954.63;5003545;28;20546;-73
2022/11/19 05:30:55;;;;;;;4.72;2.38;;;;;;;9.31;100.00;62961.31;5004867;28;20246;-74
2022/11/19 05:33:22;;;;;;;3.33;2.78;;;;;;;9.33;100.00;62957.78;4994128;28;20208;-76
2022/11/19 05:35:49;;;;;;;4.50;2.42;;;;;;;9.35;100.00;62959.84;4992673;28;20223;-74
2022/11/19 05:38:16;;;;;;;3.35;3.05;;;;;;;9.34;100.00;62961.34;5004734;28;20262;-73
2022/11/19 05:40:44;;;;;;;3.67;2.90;;;;;;;9.42;100.00;62969.63;5004883;28;20220;-73
2022/11/19 05:43:11;;;;;;;4.45;2.80;;;;;;;9.49;100.00;62974.31;5002687;28;20235;-74
2022/11/19 05:45:38;;;;;;;3.08;2.85;;;;;;;9.48;100.00;62975.31;5002335;28;20223;-73
2022/11/19 05:48:06;;;;;;;3.35;3.15;;;;;;;9.58;100.00;62988.69;5004778;28;20228;-72
2022/11/19 05:50:33;;;;;;;3.17;2.97;;;;;;;9.60;100.00;62987.72;5003094;28;20223;-74
2022/11/19 05:53:00;;;;;;;3.35;3.15;;;;;;;9.59;100.00;62984.16;4985966;28;20685;-75
2022/11/19 05:55:27;;;;;;;5.03;2.50;;;;;;;9.69;100.00;62991.94;5003145;28;20539;-74
2022/11/19 05:57:53;;;;;;;2.60;2.47;;;;;;;9.71;100.00;62996.56;5004347;28;20397;-73
2022/11/19 06:00:20;;;;;;;1.98;1.88;;;;;;;9.74;100.00;63000.19;5002147;28;20297;-75
2022/11/19 06:02:47;;;;;;;2.67;2.47;;;;;;;9.79;100.00;63010.44;5003056;28;20226;-73
2022/11/19 06:05:17;;;;;;;2.42;2.00;;;;;;;9.83;100.00;63012.03;5004270;28;20235;-73
2022/11/19 06:07:44;;;;;;;7.03;2.08;;;;;;;9.87;100.00;63016.16;5006417;28;20195;-73
2022/11/19 06:10:11;;;;;;;2.13;2.03;;;;;;;9.87;100.00;63016.16;5002181;28;20239;-73
2022/11/19 06:12:38;;;;;;;2.17;1.95;;;;;;;9.95;100.00;63018.84;5004431;28;20203;-74
2022/11/19 06:15:06;;;;;;;2.10;2.00;;;;;;;9.90;100.00;63018.75;5004012;28;20265;-73
2022/11/19 06:17:33;;;;;;;1.85;1.75;;;;;;;9.85;100.00;63008.50;5002768;28;20199;-73
2022/11/19 06:20:00;;;;;;;2.10;2.00;;;;;;;9.94;100.00;63023.41;4985153;28;20491;-74
2022/11/19 06:22:28;;;;;;;2.42;1.88;;;;;;;9.84;100.00;63012.53;5004303;28;20557;-73
2022/11/19 06:24:55;;;;;;;2.13;1.95;;;;;;;9.88;100.00;63017.19;5004525;28;20203;-73
2022/11/19 06:27:21;;;;;;;2.97;1.80;;;;;;;9.89;100.00;63018.22;5001547;28;20206;-75
2022/11/19 06:29:48;;;;;;;4.05;2.17;;;;;;;9.90;100.00;63016.72;5002971;28;20199;-72
2022/11/19 06:32:15;;;;;;;1.83;1.73;;;;;;;9.94;100.00;63020.34;5003867;28;20311;-74
2022/11/19 06:34:42;;;;;;;4.38;2.35;;;;;;;10.01;100.00;63027.59;5001879;28;20488;-74
2022/11/19 06:37:09;;;;;;;2.92;2.78;;;;;;;9.98;100.00;63024.47;5004322;28;20199;-74
2022/11/19 06:39:37;;;;;;;2.85;2.65;;;;;;;10.02;100.00;63031.16;5001425;28;20211;-74
2022/11/19 06:44:45;;;;;;;3.47;2.38;;;;;;;10.08;100.00;63039.91;4997024;28;20408;-75
2022/11/19 06:47:12;;;;;;;2.67;1.73;;;;;;;10.06;100.00;63033.25;5001730;28;20218;-74
2022/11/19 06:49:38;;;;;;;3.20;2.42;;;;;;;10.08;100.00;63037.91;5004287;28;20221;-74
2022/11/19 06:52:05;;;;;;;3.17;2.10;;;;;;;10.14;100.00;63041.06;5001214;28;20480;-75
2022/11/19 06:54:32;;;;;;;2.65;2.08;;;;;;;10.12;100.00;63042.03;5000294;28;20215;-74
2022/11/19 06:57:01;;;;;;;3.10;2.75;;;;;;;10.19;100.00;63046.22;5001970;28;20262;-75
2022/11/19 06:59:28;;;;;;;3.58;2.05;;;;;;;10.20;100.00;63052.34;5004534;28;20203;-76
2022/11/19 07:01:55;;;;;;;2.50;2.30;;;;;;;10.23;100.00;63048.31;5002369;28;20299;-75
2022/11/19 07:04:22;;;;;;;4.32;3.35;;;;;;;10.10;100.00;63039.97;5003204;28;20402;-74
2022/11/19 07:06:49;;;;;;;3.95;3.65;;;;;;;10.18;100.00;63048.25;4999953;28;20224;-74
2022/11/19 07:09:16;;;;;;;4.32;3.97;;;;;;;10.21;100.00;63045.75;4991033;28;20216;-73
2022/11/19 07:11:43;;;;;;;4.55;4.22;;;;;;;10.31;100.00;63058.63;4990691;28;20235;-74
2022/11/19 07:14:12;;;;;;;4.40;4.00;;;;;;;10.36;100.00;63066.88;4990626;28;20204;-73
2022/11/19 07:16:39;;;;;;;6.13;4.57;;;;;;;10.39;100.00;63072.00;4993948;28;20397;-74
2022/11/19 07:19:07;;;;;;;6.70;3.80;;;;;;;10.44;100.00;63075.16;4989682;28;20675;-74
2022/11/19 07:21:35;;;;;;;6.78;4.05;;;;;;;10.45;100.00;63078.22;4987230;28;20216;-73
2022/11/19 07:24:05;;;;;;;4.07;3.55;;;;;;;10.51;100.00;63081.88;4988464;28;20232;-74
2022/11/19 07:26:33;;;;;;;4.45;4.05;;;;;;;10.56;100.00;63089.09;4985708;28;20219;-73
2022/11/19 07:29:01;;;;;;;4.40;4.03;;;;;;;10.60;100.00;63090.66;4992398;28;20200;-74
2022/11/19 07:31:29;;;;;;;4.40;4.00;;;;;;;10.64;100.00;63100.44;4989811;28;20220;-74
2022/11/19 07:33:56;;;;;;;3.72;3.40;;;;;;;10.70;100.00;63101.03;4985825;28;20212;-73
2022/11/19 07:36:23;;;;;;;5.18;4.70;;;;;;;10.60;100.00;63088.66;4985595;28;20276;-75
2022/11/19 07:38:51;;;;;;;4.57;3.58;;;;;;;10.63;100.00;63091.25;4987280;28;20234;-74
2022/11/19 07:44:02;;;;;;;4.13;3.30;;;;;;;10.85;100.00;63121.66;5003682;28;20237;-73
2022/11/19 07:46:31;;;;;;;3.88;3.47;;;;;;;10.93;100.00;63125.34;5000723;28;20238;-74
2022/11/19 07:48:58;;;;;;;3.22;3.03;;;;;;;11.02;100.00;63139.78;4996717;28;20208;-73
2022/11/19 07:51:25;;;;;;;4.38;2.92;;;;;;;11.10;100.00;63140.41;4991534;28;20216;-73
2022/11/19 07:53:53;;;;;;;3.75;3.50;;;;;;;11.15;100.00;63142.50;4996439;28;20303;-75
2022/11/19 07:56:20;;;;;;;5.18;4.25;;;;;;;11.22;100.00;63149.75;5002872;28;20223;-74
2022/11/19 07:58:47;;;;;;;4.50;4.20;;;;;;;11.23;100.00;63156.41;5006268;28;20207;-75
2022/11/19 08:01:17;;;;;;;3.67;3.40;;;;;;;11.28;100.00;63158.53;5006146;28;20223;-75
2022/11/19 08:03:46;;;;;;;3.45;2.88;;;;;;;11.34;100.00;63165.25;5006166;28;20430;-74
2022/11/19 08:06:14;;;;;;;4.03;2.53;;;;;;;11.50;100.00;63181.84;5001678;28;20232;-73
2022/11/19 08:08:41;;;;;;;4.63;3.20;;;;;;;11.54;100.00;63188.03;4998522;28;20218;-76
2022/11/19 08:11:10;;;;;;;3.20;3.00;;;;;;;11.63;100.00;63194.78;4998344;28;20231;-74
2022/11/19 08:13:38;;;;;;;2.60;2.40;;;;;;;11.75;100.00;63209.28;5002345;28;20362;-74
2022/11/19 08:16:07;;;;;;;3.95;2.78;;;;;;;11.73;100.00;63212.81;5003424;28;20238;-74
2022/11/19 08:18:33;;;;;;;3.35;3.10;;;;;;;11.83;100.00;63218.09;5003266;28;20204;-76
2022/11/19 08:21:06;;;;;;;3.67;3.13;;;;;;;11.95;100.00;63230.00;5005510;28;20250;-74
2022/11/19 08:23:33;;;;;;;3.63;3.33;;;;;;;11.96;100.00;63223.88;5005794;28;20247;-75
2022/11/19 08:26:01;;;;;;;3.15;2.83;;;;;;;11.94;100.00;63228.97;5005049;28;20434;-74
2022/11/19 08:28:28;;;;;;;4.72;2.60;;;;;;;12.01;100.00;63236.22;5003184;28;20208;-74
2022/11/19 08:30:56;;;;;;;2.80;2.70;;;;;;;12.10;100.00;63243.50;5005770;28;20274;-73
2022/11/19 08:33:23;;;;;;;4.90;2.85;;;;;;;12.13;100.00;63251.72;5007118;28;20480;-73
2022/11/19 08:35:54;;;;;;;4.28;3.38;;;;;;;12.29;100.00;63263.19;5003016;28;20278;-73
2022/11/19 08:38:23;;;;;;;3.70;3.42;;;;;;;12.20;100.00;63258.47;5004154;28;20430;-73
2022/11/19 08:40:52;;;;;;;4.93;2.97;;;;;;;12.19;100.00;63257.41;4996194;28;20216;-74
2022/11/19 08:43:18;;;;;;;2.72;2.58;;;;;;;12.15;100.00;63250.72;5001350;28;20223;-76
2022/11/19 08:45:53;;;;;;;3.00;2.90;;;;;;;12.32;100.00;63265.78;4999498;28;20219;-74
2022/11/19 08:48:20;;;;;;;4.18;2.72;;;;;;;12.44;100.00;63281.28;4988540;28;20199;-74
2022/11/19 08:50:47;;;;;;;2.60;2.40;;;;;;;12.42;100.00;63281.78;4994038;28;20234;-74
2022/11/19 08:53:14;;;;;;;6.97;2.97;;;;;;;12.52;100.00;63286.53;4995900;28;20242;-73
2022/11/19 08:55:42;;;;;;;3.42;3.15;;;;;;;12.56;100.00;63288.63;5002785;28;20219;-74
2022/11/19 08:58:11;;;;;;;3.92;3.63;;;;;;;12.58;100.00;63292.75;5004328;28;20203;-77
2022/11/19 09:00:38;;;;;;;4.18;3.80;;;;;;;12.75;100.00;63307.81;4996560;28;20226;-76
2022/11/19 09:03:05;;;;;;;4.15;3.85;;;;;;;12.91;100.00;63331.56;5003446;28;20232;-76
2022/11/19 09:05:32;;;;;;;5.32;4.93;;;;;;;13.05;100.00;63344.06;5006107;28;20282;-76
2022/11/19 09:07:59;;;;;;;5.63;5.18;;;;;;;13.27;100.00;63369.44;5004534;28;20227;-76
2022/11/19 09:10:27;;;;;;;5.65;5.10;;;;;;;13.27;100.00;63369.44;5003841;28;20290;-75
2022/11/19 09:12:55;;;;;;;6.80;5.82;;;;;;;13.43;100.00;63382.97;5004491;28;20195;-78
2022/11/19 09:15:22;;;;;;;6.18;5.20;;;;;;;13.37;100.00;63379.31;4999566;28;20269;-75
2022/11/19 09:17:48;;;;;;;6.18;5.57;;;;;;;13.48;100.00;63391.22;5002774;28;20226;-75
2022/11/19 09:20:16;;;;;;;3.85;3.33;;;;;;;13.61;100.00;63407.28;5004768;28;20227;-76
2022/11/19 09:22:43;;;;;;;4.20;3.90;;;;;;;13.71;100.00;63412.53;5005504;28;20262;-74
2022/11/19 09:25:10;;;;;;;4.00;3.70;;;;;;;13.93;100.00;63437.94;5002473;28;20270;-75
2022/11/19 09:27:39;;;;;;;2.40;2.20;;;;;;;13.91;100.00;63430.22;4997279;28;20497;-75
2022/11/19 09:30:10;;;;;;;2.25;2.05;;;;;;;13.88;100.00;63425.06;5004018;28;20409;-76
2022/11/19 09:32:37;;;;;;;2.30;2.10;;;;;;;13.81;100.00;63417.81;5002916;28;20262;-74
2022/11/19 09:35:07;;;;;;;2.38;2.15;;;;;;;13.88;100.00;63435.31;5004615;28;20257;-76
2022/11/19 09:37:35;;;;;;;1.60;1.50;;;;;;;13.83;100.00;63421.91;5005459;28;20422;-76
2022/11/19 09:40:02;;;;;;;2.42;2.33;;;;;;;13.83;100.00;63424.47;5004361;28;20199;-75
2022/11/19 09:42:41;;;;;;;2.60;2.13;;;;;;;13.90;100.00;63434.31;4996976;28;20195;-76
2022/11/19 09:45:22;;;;;;;2.25;2.15;;;;;;;13.81;100.00;63419.84;5003210;28;20310;-75
2022/11/19 09:48:07;;;;;;;2.40;2.08;;;;;;;13.82;100.00;63428.56;5005591;28;20202;-75
2022/11/19 09:50:44;;;;;;;3.00;1.95;;;;;;;13.88;100.00;63429.66;4986872;28;20227;-75
2022/11/19 09:53:15;;;;;;;1.90;1.80;;;;;;;13.87;100.00;63433.75;5003953;28;20504;-73
2022/11/19 09:55:44;;;;;;;2.03;1.92;;;;;;;13.96;100.00;63443.09;5003451;28;20219;-74
2022/11/19 09:58:15;;;;;;;3.75;2.45;;;;;;;14.20;100.00;63457.78;4995747;28;20306;-73
2022/11/19 10:00:45;;;;;;;4.45;2.55;;;;;;;14.55;100.00;63498.72;4996616;28;20368;-75
2022/11/19 10:03:15;;;;;;;1.30;1.30;;;;;;;14.68;100.00;63512.25;5004017;28;20202;-74
2022/11/19 10:05:54;;;;;;;4.50;1.88;;;;;;;14.88;100.00;63535.56;5003813;28;20261;-74
2022/11/19 10:08:32;;;;;;;1.73;1.60;;;;;;;14.98;100.00;63543.91;4993438;28;20204;-74
2022/11/19 10:11:13;;;;;;;1.70;1.60;;;;;;;15.00;100.00;63546.00;4984866;28;20246;-74
2022/11/19 10:13:54;;;;;;;2.47;1.95;;;;;;;15.19;100.00;63562.13;4985904;28;20239;-74
2022/11/19 10:16:40;;;;;;;2.13;2.03;;;;;;;15.20;100.00;63566.28;5000581;28;20463;-74
2022/11/19 10:19:20;;;;;;;2.42;2.22;;;;;;;15.52;100.00;63599.53;4984434;28;20332;-74
2022/11/19 10:21:56;;;;;;;1.98;1.75;;;;;;;15.47;100.00;63589.22;4985330;28;20516;-74
2022/11/19 10:24:34;;;;;;;3.20;1.80;;;;;;;15.61;100.00;63610.94;4986389;28;20630;-74
2022/11/19 10:27:11;;;;;;;2.83;1.40;;;;;;;15.54;97.65;63601.63;4989834;28;20227;-73
2022/11/19 10:29:39;;;;;;;1.30;1.30;;;;;;;15.73;100.00;63621.38;4985354;28;20187;-73
2022/11/19 10:32:37;;;;;;;1.10;1.10;;;;;;;15.72;100.00;63620.31;4984692;28;20327;-74
2022/11/19 10:35:09;;;;;;;3.03;1.38;;;;;;;15.76;97.70;63619.34;4954656;28;20226;-74
2022/11/19 10:37:41;;;;;;;1.38;1.05;;;;;;;15.97;100.00;63643.22;4984505;28;20194;-75
2022/11/19 10:40:15;;;;;;;3.20;1.48;;;;;;;16.14;100.00;63664.00;4992217;28;20260;-75
2022/11/19 10:42:47;;;;;;;2.53;1.45;;;;;;;16.23;100.00;63672.84;5003391;28;20199;-74
2022/11/19 10:45:17;;;;;;;1.92;1.83;;;;;;;16.12;93.68;63659.34;5004715;28;20273;-75
2022/11/19 10:47:52;;;;;;;2.47;1.60;;;;;;;16.20;96.23;63669.72;5007427;28;20274;-74
2022/11/19 10:50:21;;;;;;;1.27;1.27;;;;;;;16.42;96.84;63689.50;5001908;28;20226;-74
2022/11/19 10:52:52;;;;;;;3.13;1.73;;;;;;;16.43;93.94;63693.13;5001031;28;20242;-73
2022/11/19 10:55:24;;;;;;;2.50;1.38;;;;;;;16.41;95.06;63693.63;5002565;28;20218;-75
2022/11/19 10:57:59;;;;;;;1.70;1.52;;;;;;;16.32;93.63;63682.22;4984764;28;20195;-74
2022/11/19 11:00:26;;;;;;;2.60;1.80;;;;;;;16.07;95.92;63654.16;5002373;28;20218;-75
2022/11/19 11:03:01;;;;;;;1.80;1.70;;;;;;;16.20;97.51;63675.38;5007137;28;20205;-75
2022/11/19 11:05:29;;;;;;;1.60;1.50;;;;;;;16.25;98.58;63672.34;5003592;28;20550;-75
2022/11/19 11:07:58;;;;;;;2.13;1.98;;;;;;;16.04;97.29;63653.09;4994496;28;20207;-76
2022/11/19 11:10:41;;;;;;;2.50;2.40;;;;;;;15.95;99.00;63646.28;4993887;28;20235;-74
2022/11/19 11:16:09;;;;;;;2.42;2.33;;;;;;;16.40;100.00;63690.53;4989071;28;20257;-75
2022/11/19 11:18:40;;;;;;;4.32;3.20;;;;;;;16.28;99.92;63680.09;4989357;28;21172;-76
2022/11/19 11:21:12;;;;;;;2.70;2.50;;;;;;;16.18;100.00;63665.06;4996920;28;20215;-76
2022/11/19 11:23:49;;;;;;;2.88;2.67;;;;;;;15.84;100.00;63632.28;4997151;28;20275;-75
2022/11/19 11:26:21;;;;;;;2.92;2.65;;;;;;;15.74;100.00;63630.09;4996951;28;20222;-76
2022/11/19 11:28:56;;;;;;;3.08;2.85;;;;;;;15.95;100.00;63644.25;4997630;28;20199;-76
2022/11/19 11:31:37;;;;;;;3.63;3.25;;;;;;;15.90;100.00;63641.09;4997014;28;20574;-76
2022/11/19 11:34:14;;;;;;;3.15;2.92;;;;;;;15.92;100.00;63645.75;4997269;28;20229;-76
2022/11/19 11:36:42;;;;;;;5.72;4.07;;;;;;;16.18;100.00;63668.16;4995462;28;20226;-75
2022/11/19 11:39:25;;;;;;;5.85;3.60;;;;;;;16.50;100.00;63705.56;4999013;28;20198;-76
2022/11/19 11:41:53;;;;;;;4.00;3.58;;;;;;;16.75;100.00;63729.00;4997773;28;20233;-75
2022/11/19 11:44:22;;;;;;;4.07;3.00;;;;;;;16.71;99.04;63722.78;4992160;28;20234;-78
2022/11/19 11:46:51;;;;;;;4.82;3.33;;;;;;;16.66;100.00;63717.06;4996285;28;20226;-76
2022/11/19 11:49:26;;;;;;;4.47;3.55;;;;;;;16.83;97.75;63732.19;4998125;28;20262;-76
2022/11/19 11:52:03;;;;;;;4.80;3.40;;;;;;;17.12;95.38;63765.47;4992774;28;20221;-75
2022/11/19 11:54:31;;;;;;;4.57;3.30;;;;;;;17.05;95.44;63760.75;4999976;28;20290;-75
2022/11/19 11:57:14;;;;;;;3.35;3.05;;;;;;;17.22;95.22;63775.34;5000321;28;20230;-75
2022/11/19 11:59:41;;;;;;;4.50;3.40;;;;;;;17.40;94.64;63794.09;4997417;28;20364;-75
2022/11/19 12:02:19;;;;;;;7.70;3.97;;;;;;;17.31;92.37;63782.66;5000966;28;20210;-75